Mayfield, Arkansas
Current Conditions -  °F | °C
As of 2:08 AM on Friday 24 Oct 2014 (Local Time) from KFYV Reporting Station
Clear Clear  
Wind Chill: 49°   Ceiling: Unl
Heat Index: 49°   Visibility: 8mi
Dew Point: 49°   Wind: 0mph
Humidity: 100%   Direction: NA
Pressure: 30.14"   Gusts: NA
Location:  35.9902°N, 94.083°W
Report Text: KFYV 240708Z AUTO 00000KT 8SM CLR 09/09 A3014 RMK AO2 T00940094
Loading
Personal Weather Stations






























Interactive Weather Map
Tropical Storm Tracking
New forecast layout! Learn more

10-Day Weather Forecast

Advertisements
Track Severe Weather on mobile